Yasemin — 9HA2114 — position and weather

sailwx.info

Track history (hours):
 
Tides and Currents Weather Stations Pressure Air Temp Water Temp Dewpoint Dewpoint Depression Visibility Wind Speed Wind Dir Waves Ship Positions

Yasemin

Last reported at 2017-Feb-17 11:21 UTC. Time now 2017-Feb-23 04:53 UTC.
Position N 43°57' E 038°43'.

Length 105 m; draft 7 m.

Type: Cargo ship. MMSI: 249988000.

Date/timePositionNaut miles runAvg speedWind from/ knotsBaromVisibWave heightAir tempDewpointWater temp
2017-Feb-17 11:21N 43°57' E 038°43'911.9
2017-Feb-17 10:33N 44°00' E 038°56'8 7.8
2017-Feb-17 09:33N 44°05' E 039°04'0 0.4
2017-Feb-17 08:32N 44°06' E 039°04'0 0.0
2017-Feb-17 07:32N 44°06' E 039°04'0 0.0
2017-Feb-17 06:32N 44°06' E 039°04'0 0.0
2017-Feb-17 05:32N 44°06' E 039°04'0 0.0
2017-Feb-17 04:32N 44°06' E 039°04'0 0.0
2017-Feb-17 03:32N 44°06' E 039°04'0 0.0
2017-Feb-17 02:32N 44°06' E 039°04'0 0.0
2017-Feb-17 01:32N 44°06' E 039°04'0 0.0
2017-Feb-17 00:32N 44°06' E 039°04'0 0.0
2017-Feb-16 23:32N 44°06' E 039°04'0 0.0
2017-Feb-16 22:32N 44°06' E 039°04'0 0.0
2017-Feb-16 21:32N 44°06' E 039°04'0 0.0
2017-Feb-16 20:32N 44°06' E 039°04'0 0.0
2017-Feb-16 19:32N 44°06' E 039°04'0 0.0
2017-Feb-16 18:32N 44°06' E 039°04'0 0.0
2017-Feb-16 17:32N 44°06' E 039°04'0 0.0
2017-Feb-16 16:32N 44°06' E 039°04'0 0.0
2017-Feb-16 15:32N 44°06' E 039°04'0 0.0
2017-Feb-16 14:32N 44°06' E 039°04'0 0.0
2017-Feb-16 13:32N 44°06' E 039°04'0 0.0
2017-Feb-16 12:32N 44°06' E 039°04'0 0.0
2017-Feb-16 11:32N 44°06' E 039°04'0 0.0
2017-Feb-16 10:32N 44°06' E 039°04'0 0.0
2017-Feb-16 09:32N 44°06' E 039°04'0 0.0
2017-Feb-16 08:32N 44°06' E 039°04'0 0.0
2017-Feb-16 07:32N 44°06' E 039°04'1 1.2
2017-Feb-16 06:33N 44°04' E 039°04'3 2.8
2017-Feb-16 05:33N 44°02' E 039°07'0 0.0
2017-Feb-16 04:33N 44°02' E 039°07'0 0.0
2017-Feb-16 03:33N 44°02' E 039°07'0 0.0
2017-Feb-16 02:33N 44°02' E 039°07'0 0.0
2017-Feb-16 01:33N 44°02' E 039°07'0 0.0
2017-Feb-16 00:33N 44°02' E 039°07'0 0.0
2017-Feb-15 23:33N 44°02' E 039°07'0 0.0
2017-Feb-15 22:33N 44°02' E 039°07'0 0.0
2017-Feb-15 21:33N 44°02' E 039°07'0 0.0
2017-Feb-15 20:33N 44°02' E 039°07'0 0.0
2017-Feb-15 19:33N 44°02' E 039°07'0 0.2
2017-Feb-15 18:33N 44°02' E 039°07'0 0.1
2017-Feb-15 17:33N 44°03' E 039°07'0 0.1
2017-Feb-15 16:33N 44°02' E 039°07'0 0.0
2017-Feb-15 15:33N 44°02' E 039°07'0 0.0
2017-Feb-15 14:33N 44°02' E 039°07'0 0.0
2017-Feb-15 13:33N 44°02' E 039°07'0 0.1
2017-Feb-15 12:33N 44°02' E 039°07'4 3.8
2017-Feb-15 11:33N 44°03' E 039°01'3 3.1
2017-Feb-15 10:33N 44°03' E 038°57'1 0.6
2017-Feb-15 09:33N 44°02' E 038°57'1 0.7
2017-Feb-15 08:33N 44°02' E 038°56'1 0.7
2017-Feb-15 07:33N 44°01' E 038°56'1 0.7
2017-Feb-15 06:33N 44°00' E 038°56'1 0.8
2017-Feb-15 05:33N 43°60' E 038°55'1 0.9
2017-Feb-15 04:33N 43°59' E 038°54'0 0.4
2017-Feb-15 03:33N 43°59' E 038°55'2 1.6
2017-Feb-15 02:33N 44°00' E 038°57'1 1.0
2017-Feb-15 01:33N 44°01' E 038°58'1 1.1
2017-Feb-15 00:33N 44°02' E 038°59'2 1.6
2017-Feb-14 23:33N 44°02' E 039°01'1 0.9
2017-Feb-14 22:33N 44°02' E 039°02'4 3.8
2017-Feb-14 21:33N 44°05' E 039°04'0 0.0
2017-Feb-14 20:33N 44°05' E 039°04'0 0.0
2017-Feb-14 19:33N 44°05' E 039°04'0 0.0
2017-Feb-14 18:33N 44°05' E 039°04'0 0.0
2017-Feb-14 17:33N 44°05' E 039°04'0 0.0
2017-Feb-14 16:33N 44°05' E 039°04'0 0.0
2017-Feb-14 15:33N 44°05' E 039°04'0 0.0
2017-Feb-14 14:33N 44°05' E 039°04'0 0.0
2017-Feb-14 13:33N 44°05' E 039°04'0 0.0
2017-Feb-14 12:33N 44°05' E 039°04'0 0.0
2017-Feb-14 11:33N 44°05' E 039°04'0 0.0
2017-Feb-14 10:33N 44°05' E 039°04'0 0.0
2017-Feb-14 09:33N 44°05' E 039°04'0 0.0
2017-Feb-14 08:33N 44°05' E 039°04'0 0.0
2017-Feb-14 07:33N 44°05' E 039°04'0 0.0
2017-Feb-14 06:33N 44°05' E 039°04'0 0.0
2017-Feb-14 05:33N 44°05' E 039°04'0 0.0
2017-Feb-14 04:33N 44°05' E 039°04'0 0.0
2017-Feb-14 03:33N 44°05' E 039°04'0 0.0
2017-Feb-14 02:33N 44°05' E 039°04'0 0.0
2017-Feb-14 01:33N 44°05' E 039°04'0 0.0
2017-Feb-14 00:33N 44°05' E 039°04'0 0.0
2017-Feb-13 23:33N 44°05' E 039°04'0 0.0
2017-Feb-13 22:33N 44°05' E 039°04'0 0.0
2017-Feb-13 21:33N 44°05' E 039°04'0 0.0
2017-Feb-13 20:33N 44°05' E 039°04'0 0.0
2017-Feb-13 19:33N 44°05' E 039°04'0 0.0
2017-Feb-13 18:33N 44°05' E 039°04'0 0.0
2017-Feb-13 17:33N 44°05' E 039°04'0 0.0
2017-Feb-13 16:33N 44°05' E 039°04'0 0.0
2017-Feb-13 15:33N 44°05' E 039°04'4 3.8
2017-Feb-13 14:34N 44°02' E 039°07'0 0.1
2017-Feb-13 13:31N 44°02' E 039°07'0 0.0
2017-Feb-13 12:31N 44°02' E 039°07'0 0.0
2017-Feb-13 11:31N 44°02' E 039°07'0 0.0
2017-Feb-13 10:31N 44°02' E 039°07'0 0.0
2017-Feb-13 09:31N 44°02' E 039°07'0 0.0
2017-Feb-13 08:31N 44°02' E 039°07'0 0.0
2017-Feb-13 07:28N 44°02' E 039°07'0 0.0
2017-Feb-13 06:31N 44°02' E 039°07'0 0.0
2017-Feb-13 05:31N 44°02' E 039°07'0 0.0
2017-Feb-13 04:31N 44°02' E 039°07'0 0.0
2017-Feb-13 03:31N 44°02' E 039°07'0 0.0
2017-Feb-13 02:31N 44°02' E 039°07'0 0.0
2017-Feb-13 01:31N 44°02' E 039°07'0 0.0
2017-Feb-13 00:31N 44°02' E 039°07'0 0.0
2017-Feb-12 23:31N 44°02' E 039°07'0 0.0
2017-Feb-12 22:31N 44°02' E 039°07'0 0.0
2017-Feb-12 21:31N 44°02' E 039°07'0 0.0
2017-Feb-12 20:31N 44°02' E 039°07'0 0.0
2017-Feb-12 19:31N 44°02' E 039°07'0 0.0
2017-Feb-12 18:31N 44°02' E 039°07'0 0.0
2017-Feb-12 17:31N 44°02' E 039°07'0 0.0
2017-Feb-12 16:31N 44°02' E 039°07'0 0.0
2017-Feb-12 15:31N 44°02' E 039°07'0 0.0
2017-Feb-12 14:31N 44°02' E 039°07'0 0.0
2017-Feb-12 13:31N 44°02' E 039°07'0 0.0
2017-Feb-12 12:31N 44°02' E 039°07'0 0.0
2017-Feb-12 11:31N 44°02' E 039°07'0 0.0
2017-Feb-12 10:28N 44°02' E 039°07'0 0.0
2017-Feb-12 09:31N 44°02' E 039°07'0 0.1
2017-Feb-12 08:33N 44°02' E 039°07'1010.4
2017-Feb-12 07:33N 43°57' E 038°54'1211.3
2017-Feb-12 06:31N 43°50' E 038°41'  
2017-Feb-09 00:08N 38°06' E 024°46'711.7
2017-Feb-08 23:30N 37°60' E 024°41'1111.4
2017-Feb-08 22:33N 37°51' E 024°32'1312.1
2017-Feb-08 21:31N 37°44' E 024°19'1111.8
2017-Feb-08 20:33N 37°35' E 024°11'1212.0
2017-Feb-08 19:33N 37°25' E 024°02'  
Track history (hours):
 
Tides and Currents Weather Stations Pressure Air Temp Water Temp Dewpoint Dewpoint Depression Visibility Wind Speed Wind Dir Waves Ship Positions

Yasemin

Last reported at 2017-Feb-17 11:21 UTC. Time now 2017-Feb-23 04:53 UTC.
Position N 43°57' E 038°43'.

Length 105 m; draft 7 m.

Type: Cargo ship. MMSI: 249988000.

Date/timePositionNaut miles runAvg speedWind from/ knotsBaromVisibWave heightAir tempDewpointWater temp
2017-Feb-17 11:21N 43°57' E 038°43'911.9
2017-Feb-17 10:33N 44°00' E 038°56'8 7.8
2017-Feb-17 09:33N 44°05' E 039°04'0 0.4
2017-Feb-17 08:32N 44°06' E 039°04'0 0.0
2017-Feb-17 07:32N 44°06' E 039°04'0 0.0
2017-Feb-17 06:32N 44°06' E 039°04'0 0.0
2017-Feb-17 05:32N 44°06' E 039°04'0 0.0
2017-Feb-17 04:32N 44°06' E 039°04'0 0.0
2017-Feb-17 03:32N 44°06' E 039°04'0 0.0
2017-Feb-17 02:32N 44°06' E 039°04'0 0.0
2017-Feb-17 01:32N 44°06' E 039°04'0 0.0
2017-Feb-17 00:32N 44°06' E 039°04'0 0.0
2017-Feb-16 23:32N 44°06' E 039°04'0 0.0
2017-Feb-16 22:32N 44°06' E 039°04'0 0.0
2017-Feb-16 21:32N 44°06' E 039°04'0 0.0
2017-Feb-16 20:32N 44°06' E 039°04'0 0.0
2017-Feb-16 19:32N 44°06' E 039°04'0 0.0
2017-Feb-16 18:32N 44°06' E 039°04'0 0.0
2017-Feb-16 17:32N 44°06' E 039°04'0 0.0
2017-Feb-16 16:32N 44°06' E 039°04'0 0.0
2017-Feb-16 15:32N 44°06' E 039°04'0 0.0
2017-Feb-16 14:32N 44°06' E 039°04'0 0.0
2017-Feb-16 13:32N 44°06' E 039°04'0 0.0
2017-Feb-16 12:32N 44°06' E 039°04'0 0.0
2017-Feb-16 11:32N 44°06' E 039°04'0 0.0
2017-Feb-16 10:32N 44°06' E 039°04'0 0.0
2017-Feb-16 09:32N 44°06' E 039°04'0 0.0
2017-Feb-16 08:32N 44°06' E 039°04'0 0.0
2017-Feb-16 07:32N 44°06' E 039°04'1 1.2
2017-Feb-16 06:33N 44°04' E 039°04'3 2.8
2017-Feb-16 05:33N 44°02' E 039°07'0 0.0
2017-Feb-16 04:33N 44°02' E 039°07'0 0.0
2017-Feb-16 03:33N 44°02' E 039°07'0 0.0
2017-Feb-16 02:33N 44°02' E 039°07'0 0.0
2017-Feb-16 01:33N 44°02' E 039°07'0 0.0
2017-Feb-16 00:33N 44°02' E 039°07'0 0.0
2017-Feb-15 23:33N 44°02' E 039°07'0 0.0
2017-Feb-15 22:33N 44°02' E 039°07'0 0.0
2017-Feb-15 21:33N 44°02' E 039°07'0 0.0
2017-Feb-15 20:33N 44°02' E 039°07'0 0.0
2017-Feb-15 19:33N 44°02' E 039°07'0 0.2
2017-Feb-15 18:33N 44°02' E 039°07'0 0.1
2017-Feb-15 17:33N 44°03' E 039°07'0 0.1
2017-Feb-15 16:33N 44°02' E 039°07'0 0.0
2017-Feb-15 15:33N 44°02' E 039°07'0 0.0
2017-Feb-15 14:33N 44°02' E 039°07'0 0.0
2017-Feb-15 13:33N 44°02' E 039°07'0 0.1
2017-Feb-15 12:33N 44°02' E 039°07'4 3.8
2017-Feb-15 11:33N 44°03' E 039°01'3 3.1
2017-Feb-15 10:33N 44°03' E 038°57'1 0.6
2017-Feb-15 09:33N 44°02' E 038°57'1 0.7
2017-Feb-15 08:33N 44°02' E 038°56'1 0.7
2017-Feb-15 07:33N 44°01' E 038°56'1 0.7
2017-Feb-15 06:33N 44°00' E 038°56'1 0.8
2017-Feb-15 05:33N 43°60' E 038°55'1 0.9
2017-Feb-15 04:33N 43°59' E 038°54'0 0.4
2017-Feb-15 03:33N 43°59' E 038°55'2 1.6
2017-Feb-15 02:33N 44°00' E 038°57'1 1.0
2017-Feb-15 01:33N 44°01' E 038°58'1 1.1
2017-Feb-15 00:33N 44°02' E 038°59'2 1.6
2017-Feb-14 23:33N 44°02' E 039°01'1 0.9
2017-Feb-14 22:33N 44°02' E 039°02'4 3.8
2017-Feb-14 21:33N 44°05' E 039°04'0 0.0
2017-Feb-14 20:33N 44°05' E 039°04'0 0.0
2017-Feb-14 19:33N 44°05' E 039°04'0 0.0
2017-Feb-14 18:33N 44°05' E 039°04'0 0.0
2017-Feb-14 17:33N 44°05' E 039°04'0 0.0
2017-Feb-14 16:33N 44°05' E 039°04'0 0.0
2017-Feb-14 15:33N 44°05' E 039°04'0 0.0
2017-Feb-14 14:33N 44°05' E 039°04'0 0.0
2017-Feb-14 13:33N 44°05' E 039°04'0 0.0
2017-Feb-14 12:33N 44°05' E 039°04'0 0.0
2017-Feb-14 11:33N 44°05' E 039°04'0 0.0
2017-Feb-14 10:33N 44°05' E 039°04'0 0.0
2017-Feb-14 09:33N 44°05' E 039°04'0 0.0
2017-Feb-14 08:33N 44°05' E 039°04'0 0.0
2017-Feb-14 07:33N 44°05' E 039°04'0 0.0
2017-Feb-14 06:33N 44°05' E 039°04'0 0.0
2017-Feb-14 05:33N 44°05' E 039°04'0 0.0
2017-Feb-14 04:33N 44°05' E 039°04'0 0.0
2017-Feb-14 03:33N 44°05' E 039°04'0 0.0
2017-Feb-14 02:33N 44°05' E 039°04'0 0.0
2017-Feb-14 01:33N 44°05' E 039°04'0 0.0
2017-Feb-14 00:33N 44°05' E 039°04'0 0.0
2017-Feb-13 23:33N 44°05' E 039°04'0 0.0
2017-Feb-13 22:33N 44°05' E 039°04'0 0.0
2017-Feb-13 21:33N 44°05' E 039°04'0 0.0
2017-Feb-13 20:33N 44°05' E 039°04'0 0.0
2017-Feb-13 19:33N 44°05' E 039°04'0 0.0
2017-Feb-13 18:33N 44°05' E 039°04'0 0.0
2017-Feb-13 17:33N 44°05' E 039°04'0 0.0
2017-Feb-13 16:33N 44°05' E 039°04'0 0.0
2017-Feb-13 15:33N 44°05' E 039°04'4 3.8
2017-Feb-13 14:34N 44°02' E 039°07'0 0.1
2017-Feb-13 13:31N 44°02' E 039°07'0 0.0
2017-Feb-13 12:31N 44°02' E 039°07'0 0.0
2017-Feb-13 11:31N 44°02' E 039°07'0 0.0
2017-Feb-13 10:31N 44°02' E 039°07'0 0.0
2017-Feb-13 09:31N 44°02' E 039°07'0 0.0
2017-Feb-13 08:31N 44°02' E 039°07'0 0.0
2017-Feb-13 07:28N 44°02' E 039°07'0 0.0
2017-Feb-13 06:31N 44°02' E 039°07'0 0.0
2017-Feb-13 05:31N 44°02' E 039°07'0 0.0
2017-Feb-13 04:31N 44°02' E 039°07'0 0.0
2017-Feb-13 03:31N 44°02' E 039°07'0 0.0
2017-Feb-13 02:31N 44°02' E 039°07'0 0.0
2017-Feb-13 01:31N 44°02' E 039°07'0 0.0
2017-Feb-13 00:31N 44°02' E 039°07'0 0.0
2017-Feb-12 23:31N 44°02' E 039°07'0 0.0
2017-Feb-12 22:31N 44°02' E 039°07'0 0.0
2017-Feb-12 21:31N 44°02' E 039°07'0 0.0
2017-Feb-12 20:31N 44°02' E 039°07'0 0.0
2017-Feb-12 19:31N 44°02' E 039°07'0 0.0
2017-Feb-12 18:31N 44°02' E 039°07'0 0.0
2017-Feb-12 17:31N 44°02' E 039°07'0 0.0
2017-Feb-12 16:31N 44°02' E 039°07'0 0.0
2017-Feb-12 15:31N 44°02' E 039°07'0 0.0
2017-Feb-12 14:31N 44°02' E 039°07'0 0.0
2017-Feb-12 13:31N 44°02' E 039°07'0 0.0
2017-Feb-12 12:31N 44°02' E 039°07'0 0.0
2017-Feb-12 11:31N 44°02' E 039°07'0 0.0
2017-Feb-12 10:28N 44°02' E 039°07'0 0.0
2017-Feb-12 09:31N 44°02' E 039°07'0 0.1
2017-Feb-12 08:33N 44°02' E 039°07'1010.4
2017-Feb-12 07:33N 43°57' E 038°54'1211.3
2017-Feb-12 06:31N 43°50' E 038°41'  
2017-Feb-09 00:08N 38°06' E 024°46'711.7
2017-Feb-08 23:30N 37°60' E 024°41'1111.4
2017-Feb-08 22:33N 37°51' E 024°32'1312.1
2017-Feb-08 21:31N 37°44' E 024°19'1111.8
2017-Feb-08 20:33N 37°35' E 024°11'1212.0
2017-Feb-08 19:33N 37°25' E 024°02'  

Dump ship's entire track history